createdAt,value
2023-04-29T00:05:06.964Z,213667.00
2023-04-29T00:11:11.840Z,213603.00
2023-04-29T00:17:14.320Z,213523.00
2023-04-29T00:23:17.000Z,213473.00
2023-04-29T00:29:19.489Z,213453.00
2023-04-29T00:35:22.220Z,213404.00
2023-04-29T00:41:25.165Z,213350.00
2023-04-29T00:47:27.937Z,213308.00
2023-04-29T00:53:30.952Z,213254.00
2023-04-29T00:59:34.983Z,213220.00
2023-04-29T01:05:37.371Z,213170.00
2023-04-29T01:12:14.248Z,213158.00
2023-04-29T01:18:21.207Z,213125.00
2023-04-29T01:24:24.014Z,213103.00
2023-04-29T01:30:48.181Z,213047.00
2023-04-29T01:36:51.233Z,213019.00
2023-04-29T01:43:02.245Z,212975.00
2023-04-29T01:49:08.136Z,212939.00
2023-04-29T01:55:11.989Z,212891.00
2023-04-29T02:01:23.120Z,212856.00
2023-04-29T02:07:25.644Z,212816.00
2023-04-29T02:13:28.233Z,212808.00
2023-04-29T02:19:30.788Z,212774.00
2023-04-29T02:25:33.114Z,212741.00
2023-04-29T02:31:35.866Z,212706.00
2023-04-29T02:37:38.538Z,212680.00
2023-04-29T02:43:41.251Z,212680.00
2023-04-29T02:49:43.754Z,212664.00
2023-04-29T02:55:47.636Z,212638.00
2023-04-29T03:01:50.718Z,212610.00
2023-04-29T03:07:53.143Z,212588.00
2023-04-29T03:13:55.829Z,212616.00
2023-04-29T03:19:58.168Z,212638.00
2023-04-29T03:26:01.880Z,212672.00
2023-04-29T03:32:05.110Z,212700.00
2023-04-29T03:38:07.520Z,212741.00
2023-04-29T03:44:11.623Z,212836.00
2023-04-29T03:50:15.401Z,212953.00
2023-04-29T03:56:17.956Z,213137.00
2023-04-29T04:02:21.031Z,213336.00
2023-04-29T04:08:23.668Z,213569.00
2023-04-29T04:14:29.424Z,213797.00
2023-04-29T04:20:32.266Z,213963.00
2023-04-29T04:26:35.270Z,214149.00
2023-04-29T04:32:44.248Z,214329.00
2023-04-29T04:38:46.471Z,214598.00
2023-04-29T04:44:49.090Z,214731.00
2023-04-29T04:51:11.820Z,214940.00
2023-04-29T04:57:14.417Z,215146.00
2023-04-29T05:03:18.584Z,215363.00
2023-04-29T05:09:21.257Z,215623.00
2023-04-29T05:15:24.069Z,215642.00
2023-04-29T05:21:30.429Z,216043.00
2023-04-29T05:27:33.744Z,218609.00
2023-04-29T05:33:37.169Z,218854.00
2023-04-29T05:39:40.148Z,218816.00
2023-04-29T05:45:49.111Z,218912.00
2023-04-29T05:51:51.625Z,218731.00
2023-04-29T05:57:54.142Z,221419.00
2023-04-29T06:03:57.136Z,223293.00
2023-04-29T06:09:59.732Z,223800.00
2023-04-29T06:16:03.270Z,222819.00
2023-04-29T06:22:08.728Z,222921.00
2023-04-29T06:28:12.096Z,223440.00
2023-04-29T06:34:14.598Z,224376.00
2023-04-29T06:40:36.169Z,225223.00
2023-04-29T06:47:01.917Z,223932.00
2023-04-29T06:53:18.708Z,224030.00
2023-04-29T06:59:21.080Z,223388.00
2023-04-29T07:05:23.763Z,223078.00
2023-04-29T07:11:28.040Z,224363.00
2023-04-29T07:17:32.080Z,223547.00
2023-04-29T07:23:35.081Z,223388.00
2023-04-29T07:29:38.689Z,223770.00
2023-04-29T07:35:43.809Z,224024.00
2023-04-29T07:41:47.210Z,224901.00
2023-04-29T07:47:49.927Z,224533.00
2023-04-29T07:53:52.572Z,224376.00
2023-04-29T07:59:55.218Z,224519.00
2023-04-29T08:06:02.030Z,224712.00
2023-04-29T08:12:04.683Z,225360.00
2023-04-29T08:18:07.799Z,225665.00
2023-04-29T08:24:10.149Z,225995.00
2023-04-29T08:30:13.106Z,225489.00
2023-04-29T08:36:15.537Z,224998.00
2023-04-29T08:42:29.177Z,224826.00
2023-04-29T08:48:32.254Z,224901.00
2023-04-29T08:54:34.801Z,224307.00
2023-04-29T09:00:37.806Z,224780.00
2023-04-29T09:06:40.028Z,225165.00
2023-04-29T09:12:42.331Z,225422.00
2023-04-29T09:18:50.071Z,225505.00
2023-04-29T09:24:52.960Z,225097.00
2023-04-29T09:30:55.467Z,225277.00
2023-04-29T09:36:59.653Z,225201.00
2023-04-29T09:43:02.466Z,224681.00
2023-04-29T09:49:22.907Z,224425.00
2023-04-29T09:55:25.330Z,224556.00
2023-04-29T10:01:28.852Z,224879.00
2023-04-29T10:07:31.458Z,224662.00
2023-04-29T10:13:36.371Z,224630.00
2023-04-29T10:19:50.657Z,225239.00
2023-04-29T10:25:53.853Z,225215.00
2023-04-29T10:31:57.603Z,225207.00
2023-04-29T10:38:02.194Z,224917.00
2023-04-29T10:44:05.000Z,225172.00
2023-04-29T10:50:07.426Z,225051.00
2023-04-29T10:56:11.669Z,225180.00
2023-04-29T11:02:15.703Z,224533.00
2023-04-29T11:08:24.593Z,224166.00
2023-04-29T11:14:43.494Z,223553.00
2023-04-29T11:21:07.465Z,223577.00
2023-04-29T11:27:09.948Z,223388.00
2023-04-29T11:33:12.284Z,223978.00
2023-04-29T11:39:14.520Z,224331.00
2023-04-29T11:45:20.724Z,224435.00
2023-04-29T11:51:23.228Z,223919.00
2023-04-29T11:57:26.087Z,222721.00
2023-04-29T12:03:28.549Z,222662.00
2023-04-29T12:09:42.961Z,222074.00
2023-04-29T12:15:46.932Z,221638.00
2023-04-29T12:21:50.419Z,223293.00
2023-04-29T12:27:52.610Z,224137.00
2023-04-29T12:33:55.936Z,224107.00
2023-04-29T12:39:58.579Z,224683.00
2023-04-29T12:46:06.391Z,222324.00
2023-04-29T12:52:10.957Z,220726.00
2023-04-29T12:58:13.573Z,220261.00
2023-04-29T13:04:16.892Z,222521.00
2023-04-29T13:10:19.225Z,222813.00
2023-04-29T13:16:22.920Z,222537.00
2023-04-29T13:22:25.438Z,221492.00
2023-04-29T13:28:27.600Z,221315.00
2023-04-29T13:34:29.811Z,220930.00
2023-04-29T13:40:38.295Z,220457.00
2023-04-29T13:46:43.071Z,220384.00
2023-04-29T13:59:36.096Z,220166.00
2023-04-29T14:05:16.471Z,220340.00
2023-04-29T14:11:20.186Z,220316.00
2023-04-29T14:17:23.300Z,220000.00
2023-04-29T14:23:25.822Z,219899.00
2023-04-29T14:29:28.366Z,219782.00
2023-04-29T14:35:31.999Z,219741.00
2023-04-29T14:41:34.775Z,219695.00
2023-04-29T14:47:40.805Z,219542.00
2023-04-29T14:53:43.474Z,219422.00
2023-04-29T14:59:46.065Z,219499.00
2023-04-29T15:05:50.207Z,219436.00
2023-04-29T15:11:52.756Z,219386.00
2023-04-29T15:17:54.883Z,219283.00
2023-04-29T15:23:57.756Z,219155.00
2023-04-29T15:30:00.219Z,219032.00
2023-04-29T15:36:03.427Z,218912.00
2023-04-29T15:42:06.145Z,218810.00
2023-04-29T15:48:09.025Z,218717.00
2023-04-29T15:54:11.923Z,218652.00
2023-04-29T16:00:14.424Z,218623.00
2023-04-29T16:06:17.546Z,218553.00
2023-04-29T16:12:24.279Z,218531.00
2023-04-29T16:18:27.552Z,218439.00
2023-04-29T16:24:30.167Z,218359.00
2023-04-29T16:30:32.632Z,218272.00
2023-04-29T16:36:34.927Z,218160.00
2023-04-29T16:42:37.219Z,218072.00
2023-04-29T16:48:39.518Z,218009.00
2023-04-29T16:54:42.097Z,217889.00
2023-04-29T17:00:44.359Z,217787.00
2023-04-29T17:06:46.984Z,217702.00
2023-04-29T17:12:49.457Z,217596.00
2023-04-29T17:18:51.924Z,217504.00
2023-04-29T17:24:54.128Z,217475.00
2023-04-29T17:31:00.216Z,217398.00
2023-04-29T17:37:02.488Z,217291.00
2023-04-29T17:43:04.965Z,217191.00
2023-04-29T17:49:07.826Z,217129.00
2023-04-29T17:55:10.850Z,217093.00
2023-04-29T18:01:13.441Z,217057.00
2023-04-29T18:07:15.836Z,217000.00
2023-04-29T18:13:18.038Z,216950.00
2023-04-29T18:19:20.626Z,216901.00
2023-04-29T18:25:23.221Z,216840.00
2023-04-29T18:31:26.857Z,216747.00
2023-04-29T18:37:29.952Z,216675.00
2023-04-29T18:43:32.497Z,216620.00
2023-04-29T18:49:37.315Z,216551.00
2023-04-29T18:55:40.691Z,216485.00
2023-04-29T19:01:43.557Z,216529.00
2023-04-29T19:07:45.934Z,216493.00
2023-04-29T19:13:48.185Z,216450.00
2023-04-29T19:19:50.627Z,216361.00
2023-04-29T19:25:53.299Z,216332.00
2023-04-29T19:31:55.582Z,216288.00
2023-04-29T19:37:57.897Z,216260.00
2023-04-29T19:44:00.378Z,216169.00
2023-04-29T19:50:03.575Z,216155.00
2023-04-29T19:56:05.928Z,216100.00
2023-04-29T20:02:08.361Z,216050.00
2023-04-29T20:08:11.018Z,216001.00
2023-04-29T20:14:13.685Z,215973.00
2023-04-29T20:20:16.130Z,215951.00
2023-04-29T20:26:21.422Z,215959.00
2023-04-29T20:32:23.981Z,215959.00
2023-04-29T20:38:27.330Z,215945.00
2023-04-29T20:44:30.502Z,215929.00
2023-04-29T20:50:32.985Z,215866.00
2023-04-29T20:56:35.604Z,215783.00
2023-04-29T21:02:38.216Z,215700.00
2023-04-29T21:08:40.506Z,215615.00
2023-04-29T21:14:43.146Z,215546.00
2023-04-29T21:20:46.089Z,215496.00
2023-04-29T21:26:48.645Z,215447.00
2023-04-29T21:32:51.058Z,215383.00
2023-04-29T21:38:54.880Z,215315.00
2023-04-29T21:45:00.093Z,215261.00
2023-04-29T21:51:05.748Z,215225.00
2023-04-29T21:57:08.435Z,215182.00
2023-04-29T22:03:10.768Z,215154.00
2023-04-29T22:09:13.492Z,215112.00
2023-04-29T22:15:27.424Z,215052.00
2023-04-29T22:21:32.057Z,215010.00
2023-04-29T22:27:34.566Z,214980.00
2023-04-29T22:33:36.937Z,214919.00
2023-04-29T22:39:39.366Z,214903.00
2023-04-29T22:45:41.664Z,214903.00
2023-04-29T22:51:43.941Z,214897.00
2023-04-29T22:57:46.333Z,214861.00
2023-04-29T23:03:48.804Z,214814.00
2023-04-29T23:09:52.115Z,214779.00
2023-04-29T23:15:58.300Z,214753.00
2023-04-29T23:22:01.276Z,214717.00
2023-04-29T23:28:04.072Z,214711.00
2023-04-29T23:34:06.562Z,214681.00
2023-04-29T23:40:09.811Z,214659.00
2023-04-29T23:46:12.139Z,214703.00
2023-04-29T23:52:14.607Z,214731.00
2023-04-29T23:58:17.578Z,214753.00
